• Join FlightAware (Why Join?)
  • Login
  • US Flag 
05:23AM EDT


 

Airport Tracker/Info


-or-


 

Live Flight TrackerFlight Track Log ✈ GJS3707 ✈ 20-May-2013 ✈ KBOI - KORD

Flight Track Log - Related Links

Times and Time Zones

All times are in EDT time to prevent confusion due to time zone crossing. See the GJS3707 flight status page for this flight to view local times or setup timezone preferences in your user account.

Time Position Orientation Groundspeed Altitude Reporting Facility
EDT Latitude Longitude Course Direction KTS MPH feet Rate Location/Type
03:28PM 43.6356 -116.3317 331° Northwest 235 270 6,200  Level Salt Lake Center
03:29PM 43.7019 -116.2992 19° North 260 299 8,300 2,220 Climbing Salt Lake Center
03:30PM 43.6515 -115.5992 78° East  Level FlightAware Approximate
03:30PM 43.7269 -116.1897 72° East 271 312 10,800  Level Salt Lake Center
03:31PM 43.6720 -115.4413 83° East  Level FlightAware Approximate
03:31PM 43.7394 -116.0828 81° East 289 333 12,500  Level Salt Lake Center
03:32PM 43.6838 -115.2819 65° Northeast  Level FlightAware Approximate
03:32PM 43.7542 -115.9439 82° East 325 374 14,300  Level Salt Lake Center
03:33PM 43.7119 -115.1274 81° East  Level FlightAware Approximate
03:34PM 43.7686 -115.8131 81° East 355 409 15,700  Level Salt Lake Center
03:35PM 43.7780 -115.6527 85° East  Level Estimated
03:35PM 43.7825 -115.6772 85° East 371 427 17,400  Level Salt Lake Center
03:36PM 43.7989 -115.5158 82° East 381 438 19,100 1,620 Climbing Salt Lake Center
03:37PM 43.8139 -115.3750 82° East 388 447 20,800 1,620 Climbing Salt Lake Center
03:38PM 43.8300 -115.2086 82° East 391 450 22,500 1,380 Climbing Salt Lake Center
03:39PM 43.8447 -115.0628 82° East 398 458 23,700 1,260 Climbing Salt Lake Center
03:40PM 43.8619 -114.8875 82° East 408 470 25,200 1,140 Climbing Salt Lake Center
03:41PM 43.8767 -114.7358 82° East 415 478 26,100 960 Climbing Salt Lake Center
03:42PM 43.8942 -114.5533 82° East 428 493 27,300 960 Climbing Salt Lake Center
03:43PM 43.9106 -114.3944 82° East 434 499 28,200 960 Climbing Salt Lake Center
03:44PM 43.9275 -114.2067 83° East 441 507 29,300 960 Climbing Salt Lake Center
03:45PM 43.9422 -114.0439 83° East 444 511 30,200 900 Climbing Salt Lake Center
03:46PM 43.9583 -113.8531 83° East 447 514 31,200 840 Climbing Salt Lake Center
03:47PM 43.9731 -113.6897 83° East 447 514 32,000 780 Climbing Salt Lake Center
03:48PM 43.9878 -113.5267 83° East 445 512 32,900 900 Climbing Salt Lake Center
03:49PM 43.9997 -113.3350 85° East 445 512 33,900 720 Climbing Salt Lake Center
03:50PM 44.0139 -113.1736 83° East 442 509 34,500 480 Climbing Salt Lake Center
03:51PM 44.0297 -112.9828 83° East 444 511 35,000 240 Climbing Salt Lake Center
03:52PM 44.0419 -112.8169 84° East 448 516 35,000  Level Salt Lake Center
03:53PM 44.0564 -112.6225 84° East 452 520 35,000  Level Salt Lake Center
03:54PM 44.0703 -112.4558 83° East 455 524 35,000  Level Salt Lake Center
03:55PM 44.0814 -112.2881 85° East 456 525 35,000  Level Salt Lake Center
03:56PM 44.0889 -112.0950 87° East 450 518 35,000  Level Salt Lake Center
03:57PM 44.0917 -111.9303 89° East 448 516 35,000  Level Salt Lake Center
03:58PM 44.0928 -111.7364 89° East 452 520 35,000  Level Salt Lake Center
03:59PM 44.0933 -111.5700 90° East 453 521 35,000  Level Salt Lake Center
04:00PM 44.0936 -111.3733 90° East 458 527 35,000  Level Salt Lake Center
04:01PM 44.0944 -111.2036 90° East 461 531 35,000  Level Salt Lake Center
04:02PM 44.0942 -111.0053 90° East 464 534 35,000  Level Salt Lake Center
04:03PM 44.0939 -110.8350 90° East 462 532 35,000  Level Salt Lake Center
04:04PM 44.0928 -110.6375 90° East 460 529 35,000  Level Salt Lake Center
04:05PM 44.0928 -110.4708 90° East 454 522 35,000  Level Salt Lake Center
04:06PM 44.0919 -110.3042 90° East 451 519 35,000  Level Salt Lake Center
04:07PM 44.0903 -110.1117 91° East 448 516 35,000  Level Salt Lake Center
04:08PM 44.0892 -109.9475 90° East 446 513 35,000  Level Salt Lake Center
04:10PM 44.0867 -109.7572 91° East 441 507 35,000  Level Salt Lake Center
04:11PM 44.0844 -109.5947 91° East 439 505 35,000  Level Salt Lake Center
04:12PM 44.0822 -109.4225 91° East 434 499 35,000  Level Salt Lake Center
04:13PM 44.0792 -109.2328 91° East 440 506 35,000  Level Salt Lake Center
04:14PM 44.0767 -109.0706 91° East 440 506 35,000  Level Salt Lake Center
04:15PM 44.0731 -108.9089 92° East 438 504 35,000  Level Salt Lake Center
04:16PM 44.0689 -108.7164 92° East 446 513 35,000  Level Salt Lake Center
04:17PM 44.0656 -108.5539 92° East 443 510 35,000  Level Salt Lake Center
04:18PM 44.0608 -108.3647 92° East 441 507 35,000  Level Salt Lake Center
04:19PM 44.0572 -108.2044 92° East 437 503 35,000  Level Salt Lake Center
04:20PM 44.0519 -108.0178 92° East 435 501 35,000  Level Salt Lake Center
04:21PM 44.0467 -107.8600 93° East 431 496 35,000  Level Salt Lake Center
04:22PM 44.0422 -107.6728 92° East 434 499 35,000  Level Salt Lake Center
04:23PM 44.0375 -107.5122 92° East 437 503 35,000  Level Salt Lake Center
04:24PM 44.0319 -107.3519 93° East 436 502 35,000  Level Salt Lake Center
04:25PM 44.0258 -107.1636 93° East 439 505 35,000  Level Salt Lake Center
04:26PM 44.0208 -107.0308 93° East 433 498 35,000  Level Denver Center
04:27PM 44.0164 -106.8631 92° East 433 498 35,000  Level Denver Center
04:28PM 44.0106 -106.7300 93° East 431 496 35,000  Level Denver Center
04:29PM 44.0028 -106.5194 93° East 428 493 35,000  Level Denver Center
04:30PM 44.0000 -106.3611 91° East 427 491 35,000  Level Denver Center
04:31PM 44.0025 -106.1764 89° East 429 494 35,000  Level Denver Center
04:32PM 44.0031 -106.0183 90° East 427 491 35,000  Level Denver Center
04:33PM 44.0036 -105.8361 90° East 424 488 35,000  Level Denver Center
04:34PM 44.0047 -105.6800 89° East 423 487 35,000  Level Denver Center
04:35PM 44.0042 -105.5017 90° East 417 480 35,000  Level Denver Center
04:36PM 44.0039 -105.3514 90° East 410 472 35,000  Level Denver Center
04:37PM 44.0044 -105.2239 90° East 411 473 35,000  Level Denver Center
04:38PM 44.0022 -105.0200 91° East 414 476 35,000  Level Denver Center
04:39PM 44.0028 -104.8919 90° East 415 478 35,000  Level Denver Center
04:40PM 44.0006 -104.6847 91° East 419 482 35,000  Level Denver Center
04:41PM 43.9989 -104.5264 91° East 424 488 35,000  Level Denver Center
04:42PM 43.9986 -104.3683 90° East 427 491 35,000  Level Denver Center
04:43PM 43.9956 -104.1836 91° East 429 494 35,000  Level Denver Center
04:44PM 43.9939 -104.0244 91° East 430 495 35,000  Level Denver Center
04:45PM 43.9917 -103.8375 91° East 431 496 35,000  Level Denver Center
04:46PM 43.9883 -103.6753 92° East 436 502 35,000  Level Denver Center
04:47PM 43.9856 -103.4872 91° East 436 502 35,000  Level Denver Center
04:48PM 43.9819 -103.3275 92° East 432 497 35,000  Level Denver Center
04:49PM 43.9797 -103.1683 91° East 431 496 35,000  Level Denver Center
04:50PM 43.9753 -102.9836 92° East 429 494 35,000  Level Denver Center
04:51PM 43.9719 -102.8100 91° East 429 494 35,000  Level Denver Center
04:52PM 43.9642 -102.6433 94° East 431 496 35,000  Level Denver Center
04:54PM 43.9600 -102.4800 92° East 429 494 35,000  Level Denver Center
04:55PM 43.9525 -102.3153 94° East 429 494 35,000  Level Denver Center
04:56PM 43.9467 -102.1517 93° East 428 493 35,000  Level Denver Center
04:57PM 43.9408 -101.9864 93° East 429 494 35,000  Level Denver Center
04:58PM 43.9353 -101.8214 93° East 431 496 35,000  Level Denver Center
04:59PM 43.9322 -101.6239 91° East 430 495 35,000  Level Denver Center
04:59PM 43.9283 -101.5869 98° East 433 498 35,000  Level Minneapolis Center
05:00PM 43.9214 -101.4175 93° East 437 503 35,000  Level Minneapolis Center
05:01PM 43.9183 -101.2833 92° East 444 511 35,000  Level Denver Center
05:01PM 43.9181 -101.2528 91° East 437 503 35,000  Level Minneapolis Center
05:02PM 43.9128 -101.1139 93° East 444 511 35,000  Level Denver Center
05:02PM 43.9106 -101.0808 95° East 442 509 35,000  Level Minneapolis Center
05:03PM 43.9011 -100.8442 93° East 443 510 35,000  Level Minneapolis Center
05:04PM 43.8933 -100.6736 94° East 444 511 35,000  Level Minneapolis Center
05:05PM 43.8861 -100.5047 93° East 443 510 35,000  Level Minneapolis Center
05:06PM 43.8775 -100.3347 94° East 443 510 35,000  Level Minneapolis Center
05:07PM 43.8686 -100.1628 94° East 446 513 35,000  Level Minneapolis Center
05:08PM 43.8603 -99.9928 94° East 446 513 35,000  Level Minneapolis Center
05:09PM 43.8500 -99.7872 94° East 446 513 35,000  Level Minneapolis Center
05:10PM 43.8394 -99.6172 95° East 447 514 35,000  Level Minneapolis Center
05:12PM 43.8314 -99.4458 94° East 447 514 35,000  Level Minneapolis Center
05:13PM 43.8219 -99.2736 94° East 449 517 35,000  Level Minneapolis Center
05:14PM 43.8108 -99.1014 95° East 450 518 35,000  Level Minneapolis Center
05:15PM 43.8011 -98.9286 94° East 452 520 35,000  Level Minneapolis Center
05:16PM 43.7883 -98.7222 95° East 450 518 35,000  Level Minneapolis Center
05:17PM 43.7783 -98.5686 95° East 450 518 35,000  Level Minneapolis Center
05:18PM 43.7669 -98.3967 95° East 451 519 35,000  Level Minneapolis Center
05:19PM 43.7539 -98.1894 95° East 451 519 35,000  Level Minneapolis Center
05:20PM 43.7417 -98.0175 96° East 452 520 35,000  Level Minneapolis Center
05:21PM 43.7297 -97.8422 95° East 457 526 35,000  Level Minneapolis Center
05:22PM 43.7167 -97.6658 96° East 462 532 35,000  Level Minneapolis Center
05:23PM 43.7039 -97.4889 96° East 466 536 35,000  Level Minneapolis Center
05:24PM 43.6900 -97.3117 96° East 467 537 35,000  Level Minneapolis Center
05:25PM 43.6739 -97.0958 96° East 472 543 35,000  Level Minneapolis Center
05:26PM 43.6600 -96.9156 96° East 476 548 35,000  Level Minneapolis Center
05:27PM 43.6450 -96.7414 97° East 465 535 35,000  Level Minneapolis Center
05:28PM 43.6181 -96.5689 102° East 463 533 35,000  Level Minneapolis Center
05:29PM 43.5933 -96.3975 101° East 460 529 35,000  Level Minneapolis Center
05:30PM 43.5675 -96.2258 102° East 461 531 35,000  Level Minneapolis Center
05:31PM 43.5369 -96.0206 102° East 460 529 35,000  Level Minneapolis Center
05:32PM 43.5111 -95.8475 102° East 465 535 35,000  Level Minneapolis Center
05:33PM 43.4839 -95.6742 102° East 466 536 35,000  Level Minneapolis Center
05:34PM 43.4569 -95.4986 102° East 471 542 35,000  Level Minneapolis Center
05:35PM 43.4292 -95.3239 102° East 471 542 35,000  Level Minneapolis Center
05:36PM 43.4017 -95.1478 102° East 472 543 35,000  Level Minneapolis Center
05:37PM 43.3675 -94.9364 102° East 474 545 35,000  Level Minneapolis Center
05:38PM 43.3375 -94.7614 103° East 476 548 35,000  Level Minneapolis Center
05:39PM 43.3092 -94.5864 102° East 473 544 35,000  Level Minneapolis Center
05:40PM 43.2808 -94.4100 102° East 475 547 35,000  Level Minneapolis Center
05:41PM 43.2478 -94.2169 103° East 477 549 35,000  Level Minneapolis Center
05:42PM 43.2178 -94.0431 103° East 476 548 35,000  Level Minneapolis Center
05:43PM 43.1878 -93.8683 103° East 475 547 35,000  Level Minneapolis Center
05:44PM 43.1639 -93.7286 103° East 475 547 35,000  Level Minneapolis Center
05:45PM 43.1269 -93.5189 104° East 477 549 35,000  Level Minneapolis Center
05:46PM 43.0975 -93.3439 103° East 476 548 35,000  Level Minneapolis Center
05:48PM 43.0814 -93.1264 96° East 480 552 35,000  Level Minneapolis Center
05:49PM 43.0694 -92.9453 95° East 484 557 35,000  Level Minneapolis Center
05:50PM 43.0586 -92.7644 95° East 482 555 35,000  Level Minneapolis Center
05:51PM 43.0456 -92.5903 96° East 472 543 35,000  Level Minneapolis Center
05:52PM 43.0331 -92.4192 96° East 462 532 35,000  Level Minneapolis Center
05:52PM 43.0292 -92.3856 99° East 459 528 35,000  Level Chicago Center
05:53PM 43.0206 -92.2481 95° East 457 526 35,000 -300 Level Minneapolis Center
05:53PM 43.0133 -92.1786 98° East 461 531 34,700 -1,200 Descending Chicago Center
05:54PM 43.0047 -92.0378 95° East 465 535 33,800 -1,080 Descending Minneapolis Center
05:54PM 43.0011 -92.0031 98° East 465 535 33,600 -960 Descending Chicago Center
05:55PM 42.9886 -91.8283 96° East 464 534 32,600 -1,020 Descending Chicago Center
05:56PM 42.9750 -91.6486 96° East 471 542 31,600 -900 Descending Chicago Center
05:57PM 42.9633 -91.5025 96° East 473 544 31,000 -360 Descending Minneapolis Center
05:58PM 42.9350 -91.3300 103° East 466 536 31,000  Level Minneapolis Center
05:58PM 42.9300 -91.2972 102° East 463 533 31,000  Level Chicago Center
05:59PM 42.8964 -91.0892 102° East 469 540 31,000  Level Chicago Center
06:00PM 42.8692 -90.9161 102° East 469 540 31,000  Level Chicago Center
06:01PM 42.8397 -90.7417 103° East 475 547 31,000  Level Chicago Center
06:02PM 42.8103 -90.5664 103° East 478 550 31,000 -660 Level Chicago Center
06:03PM 42.7822 -90.3936 102° East 473 544 29,700 -1,560 Descending Chicago Center
06:04PM 42.7469 -90.1875 103° East 469 540 27,800 -1,680 Descending Chicago Center
06:05PM 42.7189 -90.0183 103° East 463 533 26,300 -1,560 Descending Chicago Center
06:06PM 42.6856 -89.8375 104° East 454 522 24,600 -1,980 Descending Chicago Center
06:07PM 42.6569 -89.6750 103° East 445 512 22,300 -2,160 Descending Chicago Center
06:08PM 42.6297 -89.5183 103° East 430 495 20,100 -1,920 Descending Chicago Center
06:09PM 42.6031 -89.3714 104° East 406 467 18,300 -1,860 Descending Chicago Center
06:10PM 42.5786 -89.2278 103° East 394 453 16,300 -1,920 Descending Chicago Center
06:12PM 42.5436 -89.0608 106° East 395 455 14,400 -1,740 Descending Chicago Center
06:13PM 42.5044 -88.9289 112° Southeast 384 442 12,800 -1,500 Descending Chicago Center
06:14PM 42.4656 -88.8003 112° Southeast 374 430 11,300 -1,260 Descending Chicago Center
06:15PM 42.4303 -88.6803 112° Southeast 355 409 10,200 -1,140 Descending Chicago Center
06:16PM 42.3981 -88.5792 113° Southeast 310 357 9,000 -600 Descending Chicago Center
06:17PM 42.3769 -88.4461 102° East 313 360 9,000  Level Chicago Center
06:18PM 42.3481 -88.3403 110° East 298 343 9,000 -540 Level Chicago Center
06:19PM 42.2964 -88.2806 139° Southeast 279 321 7,900 -960 Descending Chicago Center
06:20PM 42.2261 -88.2031 141° Southeast 271 312 7,000 -960 Descending Chicago Center
06:21PM 42.1675 -88.1353 139° Southeast 277 319 5,900 -1,080 Descending Chicago Center
06:22PM 42.1158 -88.0733 138° Southeast 254 292 4,800 -1,320 Descending Chicago Center
06:23PM 42.0667 -88.0333 149° Southeast 214 246 3,500 -1,620 Descending Chicago TRACON